Time;durP1;ratioP1;P1;durP2;ratioP2;P2;SDS_P1;SDS_P2;PMS_P1;PMS_P2;Temp;Humidity;BMP_temperature;BMP_pressure;BME280_temperature;BME280_humidity;BME280_pressure;Samples;Min_cycle;Max_cycle;Signal;HPM_P1;HPM_P2
2022/12/04 00:01:09;;;;;;;26.10;12.33;;;0.70;99.90;;;;;;5031443;28;20844;-58
2022/12/04 00:03:35;;;;;;;26.00;11.60;;;0.70;99.90;;;;;;5027926;28;20516;-58
2022/12/04 00:06:30;;;;;;;29.50;12.00;;;0.70;99.90;;;;;;5025313;28;20468;-58
2022/12/04 00:08:56;;;;;;;29.73;13.87;;;0.70;99.90;;;;;;5010255;28;20434;-59
2022/12/04 00:11:24;;;;;;;28.13;11.93;;;0.70;99.90;;;;;;5027107;28;20941;-58
2022/12/04 00:13:49;;;;;;;32.13;14.53;;;0.70;99.90;;;;;;5025765;28;20456;-59
2022/12/04 00:16:18;;;;;;;30.43;13.30;;;0.70;99.90;;;;;;5023158;28;20423;-58
2022/12/04 00:18:44;;;;;;;28.07;12.80;;;0.70;99.90;;;;;;5032979;28;20178;-58
2022/12/04 00:21:12;;;;;;;31.80;13.50;;;0.70;99.90;;;;;;5032228;28;20550;-59
2022/12/04 00:23:38;;;;;;;29.20;11.90;;;0.70;99.90;;;;;;5027496;28;20267;-59
2022/12/04 00:26:07;;;;;;;27.03;11.73;;;0.70;99.90;;;;;;5027017;28;20829;-58
2022/12/04 00:28:34;;;;;;;28.27;12.07;;;0.70;99.90;;;;;;5028743;28;20478;-58
2022/12/04 00:31:03;;;;;;;29.10;14.37;;;0.70;99.90;;;;;;5027635;28;20433;-58
2022/12/04 00:33:28;;;;;;;33.23;13.50;;;0.60;99.90;;;;;;5028130;28;20460;-58
2022/12/04 00:35:58;;;;;;;30.83;13.43;;;0.70;99.90;;;;;;5027478;28;20457;-58
2022/12/04 00:38:24;;;;;;;29.97;12.53;;;0.70;99.90;;;;;;5040334;28;20714;-57
2022/12/04 00:40:51;;;;;;;37.00;12.27;;;0.70;99.90;;;;;;5016108;28;21149;-59
2022/12/04 00:43:17;;;;;;;26.10;12.50;;;0.70;99.90;;;;;;5020472;28;20436;-58
2022/12/04 00:45:43;;;;;;;30.50;13.27;;;0.70;99.90;;;;;;5028624;28;20409;-57
2022/12/04 00:48:09;;;;;;;23.80;12.63;;;0.70;99.90;;;;;;5020613;28;20442;-58
2022/12/04 00:50:35;;;;;;;32.73;13.13;;;0.70;99.90;;;;;;5029121;28;20177;-59
2022/12/04 00:53:00;;;;;;;24.03;11.63;;;0.70;99.90;;;;;;5023295;28;20296;-59
2022/12/04 00:55:26;;;;;;;32.83;13.20;;;0.70;99.90;;;;;;5025886;28;20520;-58
2022/12/04 00:57:51;;;;;;;28.23;12.67;;;0.80;99.90;;;;;;5017759;28;20236;-59
2022/12/04 01:00:17;;;;;;;23.93;12.03;;;0.80;99.90;;;;;;5020978;28;20655;-59
2022/12/04 01:02:44;;;;;;;25.60;11.23;;;0.80;99.90;;;;;;5029209;28;20684;-59
2022/12/04 01:05:10;;;;;;;30.07;12.63;;;0.80;99.90;;;;;;5028791;28;20272;-59
2022/12/04 01:07:36;;;;;;;25.67;12.73;;;0.80;99.90;;;;;;5025379;28;20591;-59
2022/12/04 01:10:03;;;;;;;27.73;12.23;;;0.70;99.90;;;;;;5027925;28;20626;-59
2022/12/04 01:12:29;;;;;;;27.30;12.67;;;0.70;99.90;;;;;;5027380;28;20305;-59
2022/12/04 01:14:54;;;;;;;24.77;12.70;;;0.70;99.90;;;;;;5025923;28;20513;-59
2022/12/04 01:17:20;;;;;;;28.70;12.63;;;0.70;99.90;;;;;;5010367;28;20189;-59
2022/12/04 01:19:46;;;;;;;29.80;12.60;;;0.70;99.90;;;;;;5025869;28;20179;-57
2022/12/04 01:22:11;;;;;;;26.40;11.73;;;0.70;99.90;;;;;;5033206;28;20173;-58
2022/12/04 01:24:37;;;;;;;23.10;11.70;;;0.70;99.90;;;;;;5030800;28;20185;-59
2022/12/04 01:27:02;;;;;;;30.33;12.50;;;0.70;99.90;;;;;;5024604;28;20201;-59
2022/12/04 01:29:28;;;;;;;27.73;12.87;;;0.70;99.90;;;;;;5027850;28;20336;-59
2022/12/04 01:31:54;;;;;;;35.00;13.83;;;0.70;99.90;;;;;;5027869;28;20195;-59
2022/12/04 01:34:19;;;;;;;33.97;13.77;;;0.80;99.90;;;;;;5027076;28;20546;-58
2022/12/04 01:36:45;;;;;;;25.87;12.93;;;0.80;99.90;;;;;;5025202;28;20196;-58
2022/12/04 01:39:11;;;;;;;27.63;11.93;;;0.80;99.90;;;;;;5026557;28;20179;-59
2022/12/04 01:41:36;;;;;;;34.37;12.50;;;0.80;99.90;;;;;;5023208;28;20171;-59
2022/12/04 01:44:14;;;;;;;32.93;12.27;;;0.80;99.90;;;;;;5027044;28;20694;-59
2022/12/04 01:46:41;;;;;;;27.73;12.43;;;0.80;99.90;;;;;;5009256;28;20752;-60
2022/12/04 01:49:13;;;;;;;25.67;11.90;;;0.80;99.90;;;;;;5023760;28;20426;-59
2022/12/04 01:51:47;;;;;;;27.67;12.00;;;0.80;99.90;;;;;;5020952;28;20440;-60
2022/12/04 01:54:27;;;;;;;26.60;11.33;;;0.80;99.90;;;;;;5028231;28;20906;-58
2022/12/04 01:57:08;;;;;;;26.10;11.93;;;0.70;99.90;;;;;;5009106;28;20461;-59
2022/12/04 01:59:39;;;;;;;35.67;12.47;;;0.70;99.90;;;;;;5027496;28;20424;-59
2022/12/04 02:02:11;;;;;;;24.43;11.73;;;0.70;99.90;;;;;;5027332;28;20540;-58
2022/12/04 02:04:39;;;;;;;24.67;10.43;;;0.80;99.90;;;;;;5030143;28;20990;-59
2022/12/04 02:07:04;;;;;;;25.40;11.90;;;0.80;99.90;;;;;;5033320;28;21295;-59
2022/12/04 02:09:31;;;;;;;31.27;11.20;;;0.80;99.90;;;;;;5030971;28;20468;-59
2022/12/04 02:12:14;;;;;;;26.73;11.67;;;0.80;99.90;;;;;;5030940;28;20191;-59
2022/12/04 02:15:02;;;;;;;21.57;10.70;;;0.80;99.90;;;;;;5030764;28;20437;-59
2022/12/04 02:17:48;;;;;;;24.23;11.20;;;0.80;99.90;;;;;;5032300;28;20992;-59
2022/12/04 02:20:19;;;;;;;27.87;13.33;;;0.80;99.90;;;;;;5016182;28;20441;-59
2022/12/04 02:22:48;;;;;;;25.10;11.67;;;0.80;99.90;;;;;;5029790;28;20417;-59
2022/12/04 02:25:23;;;;;;;29.17;13.43;;;0.80;99.90;;;;;;5030213;28;20413;-59
2022/12/04 02:27:54;;;;;;;30.67;11.37;;;0.80;99.90;;;;;;5026856;28;20456;-59
2022/12/04 02:30:19;;;;;;;26.53;12.00;;;0.80;99.90;;;;;;5031275;28;20409;-59
2022/12/04 02:33:06;;;;;;;28.30;12.53;;;0.80;99.90;;;;;;5013696;28;20456;-59
2022/12/04 02:35:46;;;;;;;31.40;12.67;;;0.80;99.90;;;;;;5009868;28;20168;-59
2022/12/04 02:38:31;;;;;;;26.47;12.40;;;0.80;99.90;;;;;;5029131;28;20433;-58
2022/12/04 02:41:04;;;;;;;25.93;12.13;;;0.80;99.90;;;;;;5026000;28;20426;-59
2022/12/04 02:43:44;;;;;;;28.53;11.20;;;0.80;99.90;;;;;;5025664;28;20429;-59
2022/12/04 02:46:18;;;;;;;23.00;10.40;;;0.80;99.90;;;;;;5016479;28;20537;-59
2022/12/04 02:48:48;;;;;;;27.87;11.47;;;0.80;99.90;;;;;;5031625;28;20774;-59
2022/12/04 02:51:16;;;;;;;29.20;12.53;;;0.80;99.90;;;;;;5022992;28;20465;-59
2022/12/04 02:53:56;;;;;;;30.27;12.20;;;0.80;99.90;;;;;;5032252;28;20465;-59
2022/12/04 02:56:29;;;;;;;24.60;11.80;;;0.80;99.90;;;;;;5029593;28;20523;-59
2022/12/04 02:59:14;;;;;;;27.70;12.23;;;0.80;99.90;;;;;;5027568;28;20429;-59
2022/12/04 03:01:45;;;;;;;29.80;12.87;;;0.80;99.90;;;;;;5030565;28;20402;-60
2022/12/04 03:04:16;;;;;;;26.40;12.20;;;0.80;99.90;;;;;;5024659;28;21042;-60
2022/12/04 03:06:44;;;;;;;31.57;14.03;;;0.80;99.90;;;;;;5020938;28;20433;-59
2022/12/04 03:09:34;;;;;;;27.97;12.60;;;0.80;99.90;;;;;;5030238;28;20484;-59
2022/12/04 03:12:18;;;;;;;27.67;11.67;;;0.80;99.90;;;;;;5028095;28;20521;-60
2022/12/04 03:15:01;;;;;;;26.03;11.63;;;0.80;99.90;;;;;;5027099;28;20474;-61
2022/12/04 03:17:33;;;;;;;24.90;11.83;;;0.80;99.90;;;;;;5030962;28;20430;-60
2022/12/04 03:20:05;;;;;;;28.77;12.47;;;0.80;99.90;;;;;;5031312;28;20449;-59
2022/12/04 03:22:32;;;;;;;29.33;12.70;;;0.80;99.90;;;;;;5011137;28;20459;-59
2022/12/04 03:24:58;;;;;;;27.03;11.73;;;0.80;99.90;;;;;;5028340;28;20430;-59
2022/12/04 03:27:36;;;;;;;34.87;12.70;;;0.80;99.90;;;;;;5020715;28;20453;-59
2022/12/04 03:30:11;;;;;;;26.60;11.53;;;0.80;99.90;;;;;;5029925;28;20644;-59
2022/12/04 03:33:00;;;;;;;28.83;11.97;;;0.80;99.90;;;;;;5012396;28;20497;-58
2022/12/04 03:35:32;;;;;;;26.70;11.43;;;0.80;99.90;;;;;;5030266;28;20410;-59
2022/12/04 03:38:20;;;;;;;26.90;11.80;;;0.80;99.90;;;;;;5011321;28;20427;-59
2022/12/04 03:40:57;;;;;;;22.80;10.40;;;0.80;99.90;;;;;;5026746;28;20431;-60
2022/12/04 03:43:25;;;;;;;24.80;11.57;;;0.80;99.90;;;;;;5027617;28;20429;-59
2022/12/04 03:46:11;;;;;;;26.83;12.37;;;0.80;99.90;;;;;;5028535;28;20446;-59
2022/12/04 03:49:07;;;;;;;25.60;11.10;;;0.80;99.90;;;;;;5023137;28;20426;-60
2022/12/04 03:51:47;;;;;;;25.67;11.53;;;0.80;99.90;;;;;;5029983;28;20422;-59
2022/12/04 03:54:32;;;;;;;22.10;10.87;;;0.80;99.90;;;;;;5029952;28;20438;-59
2022/12/04 03:57:05;;;;;;;28.83;12.10;;;0.80;99.90;;;;;;5023004;28;20465;-59
2022/12/04 03:59:43;;;;;;;24.57;11.43;;;0.80;99.90;;;;;;5027862;28;20480;-59
2022/12/04 04:02:13;;;;;;;30.20;11.33;;;0.80;99.90;;;;;;5004688;28;20404;-59
2022/12/04 04:04:42;;;;;;;28.40;12.07;;;0.80;99.90;;;;;;5024824;28;20444;-59
2022/12/04 04:07:17;;;;;;;28.53;12.50;;;0.80;99.90;;;;;;5029262;28;20472;-59
2022/12/04 04:09:46;;;;;;;26.90;11.53;;;0.80;99.90;;;;;;5029658;28;20419;-58
2022/12/04 04:12:24;;;;;;;25.10;11.33;;;0.70;99.90;;;;;;5025272;28;20491;-58
2022/12/04 04:26:19;;;;;;;29.80;13.13;;;0.70;99.90;;;;;;5028350;28;20493;-59
2022/12/04 04:28:45;;;;;;;24.13;11.60;;;0.70;99.90;;;;;;5014186;28;20448;-59
2022/12/04 04:31:16;;;;;;;28.17;12.47;;;0.60;99.90;;;;;;5025116;28;20491;-59
2022/12/04 04:33:53;;;;;;;25.30;11.50;;;0.60;99.90;;;;;;5010526;28;20748;-59
2022/12/04 04:36:33;;;;;;;30.13;12.27;;;0.60;99.90;;;;;;5029487;28;20432;-59
2022/12/04 04:39:21;;;;;;;24.40;12.07;;;0.60;99.90;;;;;;5027090;28;20423;-59
2022/12/04 04:42:11;;;;;;;22.60;11.20;;;0.60;99.90;;;;;;5027736;28;20528;-60
2022/12/04 04:44:56;;;;;;;22.67;10.83;;;0.60;99.90;;;;;;5027269;28;20430;-59
2022/12/04 04:47:35;;;;;;;29.23;12.20;;;0.60;99.90;;;;;;5028515;28;20456;-59
2022/12/04 04:50:04;;;;;;;26.27;12.23;;;0.60;99.90;;;;;;5021327;28;20425;-59
2022/12/04 04:52:30;;;;;;;28.43;11.63;;;0.60;99.90;;;;;;5042082;28;20847;-58
2022/12/04 04:54:59;;;;;;;30.70;12.17;;;0.60;99.90;;;;;;5026975;28;20456;-59
2022/12/04 04:57:29;;;;;;;23.47;11.27;;;0.60;99.90;;;;;;5028395;28;20470;-59
2022/12/04 04:59:55;;;;;;;22.50;11.40;;;0.60;99.90;;;;;;5028313;28;20610;-59
2022/12/04 05:02:21;;;;;;;24.93;11.80;;;0.60;99.90;;;;;;5010685;28;20523;-59
2022/12/04 05:04:47;;;;;;;23.90;11.17;;;0.70;99.90;;;;;;5026166;28;20196;-59
2022/12/04 05:07:12;;;;;;;28.03;11.27;;;0.70;99.90;;;;;;5034889;28;20714;-59
2022/12/04 05:09:38;;;;;;;26.70;11.90;;;0.70;99.90;;;;;;5028384;28;20569;-58
2022/12/04 05:12:03;;;;;;;31.50;11.83;;;0.70;99.90;;;;;;5027924;28;20286;-59
2022/12/04 05:14:29;;;;;;;26.70;12.10;;;0.60;99.90;;;;;;5024667;28;20187;-59
2022/12/04 05:16:54;;;;;;;29.47;11.93;;;0.70;99.90;;;;;;5028349;28;20229;-59
2022/12/04 05:22:04;;;;;;;24.30;12.13;;;0.70;99.90;;;;;;5028411;28;20223;-59
2022/12/04 05:24:30;;;;;;;24.60;11.90;;;0.70;99.90;;;;;;5028657;28;20417;-59
2022/12/04 05:26:55;;;;;;;28.63;12.50;;;0.70;99.90;;;;;;5028699;28;20695;-59
2022/12/04 05:29:21;;;;;;;27.03;12.20;;;0.70;99.90;;;;;;5026464;28;20199;-59
2022/12/04 05:31:46;;;;;;;24.07;11.47;;;0.70;99.90;;;;;;5025449;28;20185;-59
2022/12/04 05:34:12;;;;;;;23.43;11.13;;;0.70;99.90;;;;;;5004468;28;20189;-59
2022/12/04 05:36:38;;;;;;;26.27;12.43;;;0.70;99.90;;;;;;5027764;28;20832;-60
2022/12/04 05:39:03;;;;;;;25.03;10.87;;;0.70;99.90;;;;;;5027701;28;20194;-59
2022/12/04 05:41:29;;;;;;;25.40;11.67;;;0.70;99.90;;;;;;5013237;28;20622;-59
2022/12/04 05:43:54;;;;;;;26.43;11.23;;;0.70;99.90;;;;;;5031354;28;20215;-59
2022/12/04 05:46:20;;;;;;;22.67;10.90;;;0.70;99.90;;;;;;5024827;28;20891;-59
2022/12/04 05:48:45;;;;;;;24.07;10.80;;;0.70;99.90;;;;;;5028518;28;20192;-59
2022/12/04 05:51:11;;;;;;;27.20;11.10;;;0.70;99.90;;;;;;5030345;28;20236;-59
2022/12/04 05:53:37;;;;;;;21.80;10.50;;;0.70;99.90;;;;;;5032211;28;20697;-59
2022/12/04 05:56:04;;;;;;;24.00;11.63;;;0.70;99.90;;;;;;5029005;28;20210;-59
2022/12/04 05:58:30;;;;;;;23.03;11.17;;;0.70;99.90;;;;;;5028250;28;20430;-59
2022/12/04 06:00:56;;;;;;;29.37;10.30;;;0.70;99.90;;;;;;5011934;28;22256;-59
2022/12/04 06:03:22;;;;;;;24.17;11.27;;;0.70;99.90;;;;;;5030574;28;20560;-58
2022/12/04 06:05:47;;;;;;;24.77;11.73;;;0.70;99.90;;;;;;5026255;28;21006;-59
2022/12/04 06:08:13;;;;;;;25.77;11.60;;;0.70;99.90;;;;;;5035425;28;20510;-59
2022/12/04 06:10:38;;;;;;;23.27;11.30;;;0.70;99.90;;;;;;5026251;28;20269;-59
2022/12/04 06:13:05;;;;;;;21.60;10.83;;;0.70;99.90;;;;;;5011258;28;20647;-59
2022/12/04 06:15:36;;;;;;;23.10;10.80;;;0.70;99.90;;;;;;5011949;28;20186;-58
2022/12/04 06:18:02;;;;;;;27.43;11.50;;;0.70;99.90;;;;;;5026281;28;20814;-59
2022/12/04 06:20:27;;;;;;;20.17;10.40;;;0.70;99.90;;;;;;5029032;28;20434;-60
2022/12/04 06:22:53;;;;;;;26.33;11.57;;;0.70;99.90;;;;;;5029279;28;20275;-59
2022/12/04 06:25:18;;;;;;;26.87;10.13;;;0.70;99.90;;;;;;5031508;28;20178;-59
2022/12/04 06:27:44;;;;;;;24.00;10.47;;;0.70;99.90;;;;;;5029044;28;20682;-60
2022/12/04 06:30:10;;;;;;;21.30;10.57;;;0.70;99.90;;;;;;5026388;28;20192;-59
2022/12/04 06:32:35;;;;;;;25.50;10.20;;;0.60;99.90;;;;;;5028033;28;20245;-58
2022/12/04 06:35:01;;;;;;;27.20;12.03;;;0.60;99.90;;;;;;5031962;28;20411;-59
2022/12/04 06:37:27;;;;;;;25.30;11.30;;;0.60;99.90;;;;;;5030695;28;20277;-59
2022/12/04 06:39:52;;;;;;;24.27;11.00;;;0.60;99.90;;;;;;5026059;28;20249;-59
2022/12/04 06:42:18;;;;;;;23.33;11.77;;;0.70;99.90;;;;;;5030422;28;20224;-59
2022/12/04 06:44:43;;;;;;;24.03;11.17;;;0.70;99.90;;;;;;5027443;28;20182;-59
2022/12/04 06:47:09;;;;;;;28.00;12.60;;;0.70;99.90;;;;;;5031986;28;20664;-59
2022/12/04 06:49:35;;;;;;;26.10;11.10;;;0.70;99.90;;;;;;5013381;28;20673;-60
2022/12/04 06:52:00;;;;;;;23.57;11.07;;;0.70;99.90;;;;;;5013725;28;20179;-58
2022/12/04 06:54:26;;;;;;;24.13;11.17;;;0.70;99.90;;;;;;5021656;28;20172;-59
2022/12/04 06:56:51;;;;;;;24.00;11.60;;;0.70;99.90;;;;;;5023158;28;20206;-58
2022/12/04 06:59:17;;;;;;;21.60;11.80;;;0.70;99.90;;;;;;5029974;28;20168;-59
2022/12/04 07:01:43;;;;;;;22.33;11.60;;;0.70;99.90;;;;;;5024259;28;21982;-59
2022/12/04 07:04:08;;;;;;;24.70;11.50;;;0.70;99.90;;;;;;5022452;28;20181;-59
2022/12/04 07:06:36;;;;;;;22.80;10.90;;;0.70;99.90;;;;;;5022421;28;20199;-59
2022/12/04 07:09:04;;;;;;;23.30;11.40;;;0.70;99.90;;;;;;5018694;28;20197;-58
2022/12/04 07:11:30;;;;;;;28.10;12.57;;;0.70;99.90;;;;;;5020145;28;20438;-59
2022/12/04 07:13:56;;;;;;;24.83;11.47;;;0.70;99.90;;;;;;5016531;28;20472;-57
2022/12/04 07:16:25;;;;;;;28.63;13.23;;;0.80;99.90;;;;;;5014684;28;20532;-60
2022/12/04 07:18:52;;;;;;;26.00;11.40;;;0.80;99.90;;;;;;5021115;28;20177;-59
2022/12/04 07:21:21;;;;;;;27.73;11.83;;;0.80;99.90;;;;;;5017713;28;20441;-60
2022/12/04 07:23:56;;;;;;;29.43;13.20;;;0.80;99.90;;;;;;5019921;28;20486;-59
2022/12/04 07:26:22;;;;;;;30.50;13.20;;;0.80;99.90;;;;;;5021480;28;20504;-59
2022/12/04 07:28:48;;;;;;;28.00;13.53;;;0.80;99.90;;;;;;5028106;28;20455;-59
2022/12/04 07:31:16;;;;;;;29.13;13.60;;;0.80;99.90;;;;;;5021510;28;20441;-59
2022/12/04 07:33:43;;;;;;;30.43;13.10;;;0.80;99.90;;;;;;5017052;28;20246;-59
2022/12/04 07:36:12;;;;;;;27.23;12.47;;;0.80;99.90;;;;;;5022139;28;20447;-59
2022/12/04 07:38:38;;;;;;;26.70;12.00;;;0.80;99.90;;;;;;5001774;28;20524;-59
2022/12/04 07:41:05;;;;;;;26.60;12.20;;;0.80;99.90;;;;;;5017569;28;20529;-59
2022/12/04 07:43:31;;;;;;;25.83;12.40;;;0.80;99.90;;;;;;5023659;28;20178;-59
2022/12/04 07:45:58;;;;;;;27.47;12.57;;;0.80;99.90;;;;;;5015958;28;20538;-59
2022/12/04 07:48:24;;;;;;;26.20;11.93;;;0.80;99.90;;;;;;5022147;28;20440;-59
2022/12/04 07:50:49;;;;;;;27.80;11.43;;;0.90;99.90;;;;;;5017156;28;20426;-60
2022/12/04 07:53:15;;;;;;;23.47;11.20;;;0.90;99.90;;;;;;5023459;28;20709;-59
2022/12/04 07:55:41;;;;;;;26.83;12.00;;;0.90;99.90;;;;;;5016412;28;20175;-60
2022/12/04 07:58:06;;;;;;;25.17;11.07;;;0.90;99.90;;;;;;5017487;28;20196;-59
2022/12/04 08:00:32;;;;;;;24.37;12.07;;;0.90;99.90;;;;;;5022649;28;20182;-58
2022/12/04 08:02:58;;;;;;;28.67;12.57;;;0.90;99.90;;;;;;5004428;28;20830;-59
2022/12/04 08:05:23;;;;;;;27.80;12.00;;;0.90;99.90;;;;;;5018882;28;20172;-59
2022/12/04 08:07:49;;;;;;;22.50;9.70;;;0.90;99.90;;;;;;5018868;28;20677;-59
2022/12/04 08:10:14;;;;;;;24.00;11.30;;;0.90;99.90;;;;;;5022570;28;20257;-59
2022/12/04 08:12:40;;;;;;;21.27;10.57;;;1.00;99.90;;;;;;5019194;28;20191;-59
2022/12/04 08:15:06;;;;;;;20.87;10.90;;;1.00;99.90;;;;;;5021170;28;20212;-59
2022/12/04 08:17:32;;;;;;;24.50;10.97;;;1.00;99.90;;;;;;5016322;28;20222;-59
2022/12/04 08:19:57;;;;;;;26.53;12.00;;;1.00;99.90;;;;;;5020857;28;20429;-59
2022/12/04 08:22:24;;;;;;;22.93;11.23;;;1.00;99.90;;;;;;5018691;28;20702;-59
2022/12/04 08:24:49;;;;;;;25.20;11.80;;;1.00;99.90;;;;;;5014850;28;20178;-59
2022/12/04 08:27:15;;;;;;;25.43;12.33;;;1.00;99.90;;;;;;5027361;28;20441;-59
2022/12/04 08:29:41;;;;;;;25.20;11.40;;;1.00;99.90;;;;;;5014860;28;20182;-59
2022/12/04 08:32:07;;;;;;;25.07;11.57;;;1.10;99.90;;;;;;5021035;28;20238;-61
2022/12/04 08:34:33;;;;;;;29.47;13.10;;;1.10;99.90;;;;;;5014829;28;20171;-55
2022/12/04 08:36:58;;;;;;;25.07;13.57;;;1.10;99.90;;;;;;5005784;28;20214;-55
2022/12/04 08:39:24;;;;;;;31.47;13.80;;;1.10;99.90;;;;;;5019872;28;20430;-54
2022/12/04 08:41:50;;;;;;;29.50;14.30;;;1.10;99.90;;;;;;5021959;28;20174;-58
2022/12/04 08:44:16;;;;;;;28.43;13.73;;;1.10;99.90;;;;;;5018084;28;20426;-56
2022/12/04 08:46:42;;;;;;;25.77;12.90;;;1.20;99.90;;;;;;5013284;28;20531;-56
2022/12/04 08:49:07;;;;;;;31.03;13.73;;;1.20;99.90;;;;;;5023325;28;20193;-54
2022/12/04 08:51:34;;;;;;;27.23;12.73;;;1.20;99.90;;;;;;5022361;28;20214;-55
2022/12/04 08:54:03;;;;;;;32.00;15.73;;;1.20;99.90;;;;;;5022293;28;20281;-54
2022/12/04 08:56:30;;;;;;;28.73;13.10;;;1.30;99.90;;;;;;5023454;28;20509;-54
2022/12/04 08:58:57;;;;;;;26.90;13.77;;;1.30;99.90;;;;;;5005699;28;20435;-56
2022/12/04 09:01:24;;;;;;;33.63;15.07;;;1.30;99.90;;;;;;5016295;28;20433;-56
2022/12/04 09:03:50;;;;;;;28.17;13.37;;;1.30;99.90;;;;;;5016112;28;20889;-54
2022/12/04 09:06:16;;;;;;;26.27;12.63;;;1.30;99.90;;;;;;5002427;28;20998;-53
2022/12/04 09:08:42;;;;;;;30.00;13.30;;;1.30;99.90;;;;;;5016079;28;20713;-57
2022/12/04 09:11:10;;;;;;;25.93;11.63;;;1.30;99.90;;;;;;5021549;28;20555;-56
2022/12/04 09:13:36;;;;;;;24.43;12.20;;;1.30;99.90;;;;;;5024870;28;20811;-58
2022/12/04 09:16:08;;;;;;;23.97;11.10;;;1.30;99.90;;;;;;5010664;28;20457;-55
2022/12/04 09:18:35;;;;;;;24.90;11.20;;;1.30;99.90;;;;;;5024416;28;20974;-59
2022/12/04 09:21:03;;;;;;;26.53;12.70;;;1.30;99.90;;;;;;5023067;28;20410;-58
2022/12/04 09:23:29;;;;;;;25.90;12.10;;;1.30;99.90;;;;;;5018905;28;20978;-59
2022/12/04 09:25:54;;;;;;;23.10;11.40;;;1.30;99.90;;;;;;5002658;28;21096;-59
2022/12/04 09:28:20;;;;;;;25.17;11.37;;;1.30;99.90;;;;;;5023437;28;20524;-58
2022/12/04 09:30:58;;;;;;;28.73;12.70;;;1.30;99.90;;;;;;5023649;28;20191;-58
2022/12/04 09:33:24;;;;;;;25.93;12.43;;;1.30;99.90;;;;;;5021498;28;21762;-59
2022/12/04 09:35:50;;;;;;;24.10;11.23;;;1.30;99.90;;;;;;5022207;28;20952;-58
2022/12/04 09:38:15;;;;;;;26.23;12.70;;;1.30;99.90;;;;;;5018229;28;20432;-59
2022/12/04 09:40:53;;;;;;;22.80;11.20;;;1.30;99.90;;;;;;5020471;28;20171;-58
2022/12/04 09:43:34;;;;;;;26.20;11.90;;;1.30;99.90;;;;;;5015339;28;20186;-59
2022/12/04 09:46:11;;;;;;;32.43;14.40;;;1.40;99.90;;;;;;5023119;28;20489;-58
2022/12/04 09:48:40;;;;;;;24.83;11.73;;;1.40;99.90;;;;;;5017477;28;20435;-58
2022/12/04 09:51:15;;;;;;;22.03;11.30;;;1.40;99.90;;;;;;5016031;28;20516;-59
2022/12/04 09:53:49;;;;;;;23.00;11.53;;;1.40;99.90;;;;;;5004438;28;20449;-58
2022/12/04 09:56:21;;;;;;;24.33;11.57;;;1.40;99.90;;;;;;5022896;28;20458;-56
2022/12/04 09:58:52;;;;;;;27.23;12.27;;;1.40;99.90;;;;;;5021395;28;20425;-55
2022/12/04 10:01:25;;;;;;;27.43;12.43;;;1.40;99.90;;;;;;5020880;28;20422;-53
2022/12/04 10:03:53;;;;;;;28.17;12.73;;;1.40;99.90;;;;;;5021424;28;20441;-57
2022/12/04 10:06:23;;;;;;;28.10;12.17;;;1.40;99.90;;;;;;5004501;28;20545;-53
2022/12/04 10:09:08;;;;;;;24.70;11.60;;;1.40;99.90;;;;;;5020722;28;20516;-55
2022/12/04 10:11:58;;;;;;;25.80;11.53;;;1.40;99.90;;;;;;5007089;28;20938;-56
2022/12/04 10:14:53;;;;;;;30.13;13.77;;;1.40;99.90;;;;;;5020175;28;20866;-53
2022/12/04 10:17:25;;;;;;;31.80;13.97;;;1.50;99.90;;;;;;5021416;28;20445;-53
2022/12/04 10:20:23;;;;;;;29.00;13.20;;;1.50;99.90;;;;;;5019647;28;20448;-52
2022/12/04 10:23:15;;;;;;;22.63;11.80;;;1.50;99.90;;;;;;5020792;28;20441;-54
2022/12/04 10:25:42;;;;;;;22.23;11.80;;;1.50;99.90;;;;;;4995876;28;20425;-55
2022/12/04 10:28:32;;;;;;;26.80;12.80;;;1.50;99.90;;;;;;5013258;28;20579;-57
2022/12/04 10:31:01;;;;;;;27.73;13.20;;;1.60;99.90;;;;;;5020541;28;20524;-57
2022/12/04 10:33:36;;;;;;;32.03;13.47;;;1.60;99.90;;;;;;5023292;28;20561;-57
2022/12/04 10:36:04;;;;;;;33.37;14.17;;;1.60;99.90;;;;;;5018930;28;20452;-58
2022/12/04 10:38:39;;;;;;;26.30;12.43;;;1.60;99.90;;;;;;5017857;28;20495;-58
2022/12/04 10:41:28;;;;;;;26.67;12.50;;;1.60;99.90;;;;;;5020851;28;20433;-58
2022/12/04 10:43:54;;;;;;;28.87;13.43;;;1.60;99.90;;;;;;5016150;28;20461;-59
2022/12/04 10:46:19;;;;;;;24.77;12.27;;;1.60;99.90;;;;;;5017034;28;20490;-58
2022/12/04 10:48:50;;;;;;;24.63;12.17;;;1.50;99.90;;;;;;5003296;28;20430;-58
2022/12/04 10:51:18;;;;;;;29.17;13.43;;;1.60;99.90;;;;;;5000193;28;20185;-57
2022/12/04 10:53:48;;;;;;;28.70;14.63;;;1.60;99.90;;;;;;5016086;28;20985;-59
2022/12/04 10:56:20;;;;;;;28.67;13.40;;;1.60;99.90;;;;;;4998186;28;20476;-59
2022/12/04 10:59:01;;;;;;;24.83;11.70;;;1.60;99.90;;;;;;5021173;28;20435;-58
2022/12/04 11:01:32;;;;;;;28.10;12.50;;;1.60;99.90;;;;;;5018990;28;20953;-59
2022/12/04 11:04:08;;;;;;;24.90;12.70;;;1.60;99.90;;;;;;5017848;28;20489;-57
2022/12/04 11:06:34;;;;;;;27.23;11.73;;;1.70;99.90;;;;;;4994913;28;20453;-59
2022/12/04 11:09:01;;;;;;;25.70;13.17;;;1.90;99.90;;;;;;5014985;28;21008;-59
2022/12/04 11:11:34;;;;;;;29.77;13.43;;;2.00;99.90;;;;;;5011093;28;20431;-59
2022/12/04 11:14:04;;;;;;;27.53;12.87;;;2.00;99.90;;;;;;5018361;28;20554;-58
2022/12/04 11:16:38;;;;;;;29.60;12.73;;;2.00;99.90;;;;;;5020391;28;20956;-59
2022/12/04 11:19:25;;;;;;;30.00;13.80;;;2.00;99.90;;;;;;4998501;28;20910;-59
2022/12/04 11:21:54;;;;;;;25.17;12.00;;;2.00;99.90;;;;;;5016238;28;21093;-60
2022/12/04 11:24:33;;;;;;;23.20;11.90;;;2.10;99.90;;;;;;5018502;28;20445;-59
2022/12/04 11:27:01;;;;;;;28.77;11.50;;;2.10;99.90;;;;;;5015300;28;20461;-60
2022/12/04 11:29:40;;;;;;;27.47;12.10;;;2.10;99.90;;;;;;5016325;28;20586;-59
2022/12/04 11:32:16;;;;;;;24.60;13.03;;;2.10;99.90;;;;;;5015992;28;20458;-59
2022/12/04 11:34:44;;;;;;;23.43;12.20;;;2.10;99.90;;;;;;5016822;28;21233;-59
2022/12/04 11:37:31;;;;;;;21.70;11.73;;;2.10;99.90;;;;;;5020070;28;20502;-59
2022/12/04 11:39:57;;;;;;;25.33;12.30;;;2.10;99.90;;;;;;5021869;28;20433;-58
2022/12/04 11:42:30;;;;;;;25.13;11.77;;;2.10;99.90;;;;;;5015513;28;20449;-58
2022/12/04 11:45:21;;;;;;;30.33;12.20;;;2.10;99.90;;;;;;5016536;28;21059;-59
2022/12/04 11:47:59;;;;;;;21.23;12.17;;;2.10;99.90;;;;;;5004064;28;20462;-59
2022/12/04 11:50:48;;;;;;;22.60;11.37;;;2.10;99.90;;;;;;5017981;28;20910;-59
2022/12/04 11:53:40;;;;;;;25.20;11.97;;;2.20;99.90;;;;;;5019788;28;21129;-59
2022/12/04 11:56:28;;;;;;;23.13;12.23;;;2.20;99.90;;;;;;5017499;28;20543;-58
2022/12/04 11:59:23;;;;;;;26.47;12.80;;;2.20;99.90;;;;;;5023255;28;20440;-58
2022/12/04 12:02:13;;;;;;;25.60;12.07;;;2.30;99.90;;;;;;4987798;28;20444;-60
2022/12/04 12:04:47;;;;;;;26.47;12.40;;;2.30;99.90;;;;;;5004862;28;20995;-61
2022/12/04 12:07:29;;;;;;;24.20;12.67;;;2.40;99.90;;;;;;5013107;28;20540;-58
2022/12/04 12:09:58;;;;;;;23.50;12.67;;;2.30;99.90;;;;;;5016798;28;20447;-59
2022/12/04 12:12:52;;;;;;;19.10;10.87;;;2.30;99.90;;;;;;5017151;28;20496;-58
2022/12/04 12:15:30;;;;;;;22.20;11.53;;;2.40;99.90;;;;;;5015766;28;20929;-58
2022/12/04 12:18:13;;;;;;;25.67;11.70;;;2.40;99.90;;;;;;5013396;28;20531;-59
2022/12/04 12:20:52;;;;;;;23.20;12.10;;;2.40;99.90;;;;;;5007922;28;20426;-59
2022/12/04 12:23:45;;;;;;;21.50;11.20;;;2.30;99.90;;;;;;5001450;28;20472;-59
2022/12/04 12:26:16;;;;;;;23.43;12.10;;;2.40;99.90;;;;;;5012987;28;21236;-60
2022/12/04 12:29:12;;;;;;;22.33;12.20;;;2.40;99.90;;;;;;5012405;28;20817;-59
2022/12/04 12:31:40;;;;;;;20.57;11.13;;;2.40;99.90;;;;;;5013862;28;20443;-59
2022/12/04 12:34:15;;;;;;;26.43;12.57;;;2.50;99.90;;;;;;5013865;28;20476;-59
2022/12/04 12:36:49;;;;;;;24.67;12.10;;;2.50;99.90;;;;;;5000762;28;20445;-58
2022/12/04 12:39:56;;;;;;;24.90;11.73;;;2.40;99.90;;;;;;5016307;28;20441;-59
2022/12/04 12:42:28;;;;;;;22.13;11.70;;;2.50;99.90;;;;;;4979404;28;20847;-59
2022/12/04 12:45:25;;;;;;;31.80;13.83;;;2.50;99.90;;;;;;5017184;28;20917;-59
2022/12/04 12:47:55;;;;;;;22.27;12.00;;;2.50;99.90;;;;;;5022092;28;20453;-58
2022/12/04 12:50:27;;;;;;;23.67;12.70;;;2.50;99.90;;;;;;5021142;28;20440;-59
2022/12/04 12:53:00;;;;;;;25.57;12.77;;;2.50;99.90;;;;;;5026892;28;20489;-59
2022/12/04 12:55:40;;;;;;;25.70;12.50;;;2.60;99.90;;;;;;5022759;28;21077;-59
2022/12/04 12:58:15;;;;;;;21.93;11.40;;;2.50;99.90;;;;;;5021457;28;20432;-59
2022/12/04 13:00:47;;;;;;;26.50;12.70;;;2.50;99.90;;;;;;5006978;28;20430;-59
2022/12/04 13:03:26;;;;;;;26.07;11.27;;;2.50;99.90;;;;;;5016250;28;20445;-59
2022/12/04 13:05:58;;;;;;;26.60;12.33;;;2.50;99.90;;;;;;5013166;28;20942;-58
2022/12/04 13:08:28;;;;;;;26.03;12.83;;;2.50;99.90;;;;;;5023568;28;20444;-58
2022/12/04 13:11:12;;;;;;;20.00;11.17;;;2.50;99.90;;;;;;5012107;28;20518;-59